< < Back
Terminal Aerodrome Forecast


Current Version              Previous Versions:   1  2  3  4  5  6  7  8  9  

Terminal Aerodrome Forecast

573
FTUS44 KMRX 281643 AAB
TAFTYS
TAF AMD
KTYS 281643Z 2817/2912 30010KT P6SM SCT030
     FM281800 29012G20KT P6SM SCT050
     FM290000 32006KT P6SM SCT250=

Latest METAR

357
SAUS80 KWBC 290200 RRA
MTRTYS
METAR KTYS 290153Z 35007KT 10SM FEW045 SCT065 BKN090 22/15 A2998 RMK AO2
SLP141 T02220150


USA.gov is the U.S. government's official web portal to all federal, state and local government web resources and services.